Terminal Aerodrome Forecast
Issued by NWS Northern Indiana

Home | Current Version | Previous Version | Text Only | Print | Product List | Glossary On
Versions: 1 2 3 4 5 6 7 8 9 10 11 12 13
000
FTUS43 KIWX 211700
TAFFWA
TAF
KFWA 211737Z 2118/2218 20008KT P6SM SCT200
     FM220900 19012KT P6SM -FZRA OVC025 WS020/22050KT
     FM221300 20012KT P6SM -RA OVC015 WS020/22050KT=

USA.gov is the U.S. government's official web portal to all federal, state and local government web resources and services.